CheckWX is a tool to help pilots better visualize weather data.  It is not intended as a substitute for an official pre-flight weather briefing.

13:58:24 UTC

KBPK METAR
Baxter County Airport
Mountain Home, Arkansas, USA
Current

1 hour ago

KBPK 201253Z AUTO 18004KT 10SM CLR 25/24 A3006 RMK AO2 SLP165 T02500239
Observed
Aug-20 @ 12:53 UTC
Wind
  • 180° at 4 KTS
Visibility
10 SM
Flight Rules
VFR
Cloud Levels
  • Clear skies
Temperature
25°C / 77°F
Dewpoint
24°C / 75°F
Humidity
94%
Altimeter
30.06" Hg
Pressure
1017.92 hPa
Previous

2 hours ago

KBPK 201153Z AUTO 00000KT 10SM CLR 23/23 A3002 RMK AO2 SLP155 T02330228 10261 20228 55001
Observed
Aug-20 @ 11:53 UTC
Visibility
10 SM
Flight Rules
VFR
Cloud Levels
  • Clear skies
Temperature
23°C / 73°F
Dewpoint
23°C / 73°F
Humidity
100%
Altimeter
30.02" Hg
Pressure
1016.62 hPa
Previous

3 hours ago

KBPK 201053Z AUTO 00000KT 10SM CLR 24/23 A3001 RMK AO2 SLP151 T02390228
Observed
Aug-20 @ 10:53 UTC
Visibility
10 SM
Flight Rules
VFR
Cloud Levels
  • Clear skies
Temperature
24°C / 75°F
Dewpoint
23°C / 73°F
Humidity
94%
Altimeter
30.01" Hg
Pressure
1016.22 hPa